Terminal Aerodrome Forecast
Issued by NWS North Platte, NE

Home | Current Version | Previous Version | Graphics & Text | Print | Product List | Glossary On
Versions: 1 2 3 4 5 6 7 8 9 10 11 12 13 14 15 16 17 18 19 20
000
FTUS43 KLBF 030900 AAB
TAFVTN
TAF AMD
KVTN 030915Z 0309/0406 24004KT 3SM -SN BR OVC020
     FM031000 34022G34KT 3SM -SN BR OVC015
      TEMPO 0311/0314 1SM -SN BR OVC010
     FM031600 34024G34KT P6SM -SN OVC015
     FM032100 34018G29KT P6SM SCT015 BKN250=

USA.gov is the U.S. government's official web portal to all federal, state and local government web resources and services.